Time;durP1;ratioP1;P1;durP2;ratioP2;P2;SDS_P1;SDS_P2;PMS_P1;PMS_P2;Temp;Humidity;BMP_temperature;BMP_pressure;BME280_temperature;BME280_humidity;BME280_pressure;Samples;Min_cycle;Max_cycle;Signal;HPM_P1;HPM_P2
2021/12/23 00:00:33;;;;;;;91.60;46.45;;;38.40;2201.60;;;;;;5013270;28;20388;-66
2021/12/23 00:02:59;;;;;;;93.88;53.20;;;38.40;2201.60;;;;;;5012916;28;20033;-68
2021/12/23 00:05:25;;;;;;;74.90;39.65;;;13.70;2201.60;;;;;;5013195;28;20042;-68
2021/12/23 00:07:50;;;;;;;75.47;40.63;;;13.70;2201.60;;;;;;5012943;28;20024;-69
2021/12/23 00:10:17;;;;;;;89.65;48.83;;;13.70;2201.60;;;;;;5012890;28;20113;-70
2021/12/23 00:12:45;;;;;;;338.75;185.88;;;38.40;2201.60;;;;;;5013000;28;20076;-69
2021/12/23 00:15:23;;;;;;;210.75;119.82;;;38.40;2201.60;;;;;;5012933;28;20377;-67
2021/12/23 00:23:27;;;;;;;178.70;92.63;;;38.60;2201.60;;;;;;4952411;29;20031;-67
2021/12/23 00:25:57;;;;;;;217.07;114.72;;;38.60;2201.60;;;;;;4952318;29;20145;-70
2021/12/23 00:28:23;;;;;;;210.77;109.32;;;38.60;2201.60;;;;;;4952377;29;20031;-65
2021/12/23 00:30:49;;;;;;;246.90;132.82;;;38.70;2201.60;;;;;;4951939;29;20646;-68
2021/12/23 00:33:15;;;;;;;200.32;116.13;;;38.80;2201.60;;;;;;4951708;28;20067;-69
2021/12/23 00:35:41;;;;;;;173.05;91.78;;;38.70;2201.60;;;;;;4952240;29;20071;-68
2021/12/23 00:38:16;;;;;;;138.95;69.22;;;38.60;2201.60;;;;;;4951834;29;20051;-69
2021/12/23 00:40:42;;;;;;;150.48;77.85;;;38.80;2201.60;;;;;;4952074;29;20031;-69
2021/12/23 00:43:08;;;;;;;92.10;47.10;;;38.90;2201.60;;;;;;4950627;28;20488;-67
2021/12/23 00:45:34;;;;;;;75.50;41.42;;;38.80;2201.60;;;;;;4952077;29;20043;-68
2021/12/23 00:47:59;;;;;;;79.78;38.53;;;38.90;2201.60;;;;;;4951870;28;20034;-67
2021/12/23 00:50:25;;;;;;;77.45;39.90;;;39.00;2201.60;;;;;;4951695;29;20047;-70
2021/12/23 00:53:00;;;;;;;63.25;35.58;;;38.90;2201.60;;;;;;4951761;29;20024;-67
2021/12/23 00:55:26;;;;;;;83.18;42.83;;;39.00;2201.60;;;;;;4958572;28;20109;-68
2021/12/23 00:57:51;;;;;;;70.82;39.13;;;38.90;2201.60;;;;;;5012350;28;20033;-67
2021/12/23 01:00:19;;;;;;;83.57;43.38;;;39.00;2201.60;;;;;;5011762;28;20121;-68
2021/12/23 01:02:46;;;;;;;90.97;41.33;;;39.00;2201.60;;;;;;5011888;28;20052;-69
2021/12/23 01:05:16;;;;;;;83.88;40.42;;;38.90;2201.60;;;;;;5012089;28;20042;-67
2021/12/23 01:07:42;;;;;;;102.93;53.35;;;39.00;2201.60;;;;;;5011948;28;20041;-69
2021/12/23 01:10:08;;;;;;;120.70;62.35;;;39.10;2201.60;;;;;;5011922;28;20455;-67
2021/12/23 01:12:49;;;;;;;117.32;59.72;;;39.10;2201.60;;;;;;5011895;28;20452;-68
2021/12/23 01:15:39;;;;;;;112.40;58.13;;;39.00;2201.60;;;;;;5011651;28;20033;-70
2021/12/23 01:18:09;;;;;;;107.43;58.47;;;39.10;2201.60;;;;;;4996985;28;20029;-66
2021/12/23 01:20:51;;;;;;;121.20;67.00;;;39.10;2201.60;;;;;;5011726;28;20471;-68
2021/12/23 01:23:22;;;;;;;75.03;41.87;;;39.10;2201.60;;;;;;5011592;28;20068;-68
2021/12/23 01:25:49;;;;;;;73.20;38.08;;;39.20;2201.60;;;;;;5011363;28;20040;-69
2021/12/23 01:28:15;;;;;;;87.07;48.75;;;39.30;2201.60;;;;;;5011336;28;20046;-68
2021/12/23 01:30:42;;;;;;;88.45;49.90;;;64.00;2201.60;;;;;;5011279;28;20482;-67
2021/12/23 01:33:09;;;;;;;108.20;55.60;;;64.00;2201.60;;;;;;5011028;28;20032;-67
2021/12/23 01:35:36;;;;;;;123.10;60.70;;;64.10;2201.60;;;;;;5011413;28;20826;-68
2021/12/23 01:38:03;;;;;;;149.02;83.13;;;39.30;2201.60;;;;;;5011567;28;20061;-67
2021/12/23 01:40:29;;;;;;;149.55;84.18;;;39.30;2201.60;;;;;;5011147;28;20026;-68
2021/12/23 01:42:56;;;;;;;144.80;72.88;;;39.20;2201.60;;;;;;5011369;28;20021;-67
2021/12/23 01:45:27;;;;;;;125.28;65.85;;;39.10;2201.60;;;;;;5011039;28;20061;-68
2021/12/23 01:47:53;;;;;;;167.00;85.57;;;39.20;2201.60;;;;;;5011162;28;20034;-68
2021/12/23 01:50:27;;;;;;;151.70;76.78;;;39.20;2201.60;;;;;;5010945;28;20116;-68
2021/12/23 01:52:57;;;;;;;96.85;45.67;;;39.10;2201.60;;;;;;5010997;28;20033;-67
2021/12/23 01:55:23;;;;;;;154.68;76.05;;;39.10;2201.60;;;;;;5011056;28;20075;-67
2021/12/23 01:57:50;;;;;;;172.80;86.72;;;39.30;2201.60;;;;;;5010862;28;20029;-67
2021/12/23 02:00:18;;;;;;;90.03;42.78;;;39.20;2201.60;;;;;;5010775;28;20026;-68
2021/12/23 02:02:44;;;;;;;71.75;34.45;;;39.30;2201.60;;;;;;5010665;28;20020;-67
2021/12/23 02:05:10;;;;;;;132.88;69.75;;;38.70;2201.60;;;;;;5010672;28;20045;-67
2021/12/23 02:07:37;;;;;;;96.35;45.63;;;39.10;2201.60;;;;;;5010898;28;20026;-68
2021/12/23 02:10:06;;;;;;;84.93;41.90;;;39.20;2201.60;;;;;;4993861;28;20491;-68
2021/12/23 02:12:32;;;;;;;201.65;101.00;;;39.20;2201.60;;;;;;5011580;28;20040;-67
2021/12/23 02:14:58;;;;;;;109.30;52.22;;;64.10;2201.60;;;;;;5011166;28;20029;-68
2021/12/23 02:17:23;;;;;;;103.80;45.22;;;64.10;2201.60;;;;;;5010741;28;20054;-69
2021/12/23 02:19:55;;;;;;;59.15;28.00;;;64.30;2201.60;;;;;;5010629;28;20026;-69
2021/12/23 02:22:21;;;;;;;67.97;34.35;;;64.20;2201.60;;;;;;5010698;28;20036;-69
2021/12/23 02:24:47;;;;;;;67.15;36.05;;;64.30;2201.60;;;;;;5010223;28;20037;-70
2021/12/23 02:27:13;;;;;;;47.83;23.55;;;64.20;2201.60;;;;;;5010455;28;20532;-69
2021/12/23 02:29:38;;;;;;;61.38;29.23;;;64.20;2201.60;;;;;;5010325;28;20456;-69
2021/12/23 02:32:05;;;;;;;56.75;32.25;;;64.20;2201.60;;;;;;5010319;28;20129;-71
2021/12/23 02:34:31;;;;;;;64.20;32.20;;;64.10;2201.60;;;;;;5010336;28;20058;-70
2021/12/23 02:36:58;;;;;;;79.57;40.30;;;64.20;2201.60;;;;;;5010328;28;20040;-71
2021/12/23 02:39:27;;;;;;;78.68;40.90;;;64.00;2201.60;;;;;;5010428;28;20112;-70
2021/12/23 02:41:53;;;;;;;95.20;47.47;;;64.10;2201.60;;;;;;5010377;28;20427;-69
2021/12/23 02:44:19;;;;;;;111.55;63.10;;;64.00;2201.60;;;;;;5009932;28;20080;-70
2021/12/23 02:46:45;;;;;;;70.25;37.47;;;64.00;2201.60;;;;;;5010191;28;20492;-71
2021/12/23 02:49:12;;;;;;;45.53;26.02;;;64.00;2201.60;;;;;;5010390;28;20029;-69
2021/12/23 02:51:38;;;;;;;75.38;36.97;;;64.20;2201.60;;;;;;5010176;28;20080;-71
2021/12/23 02:54:04;;;;;;;108.78;54.10;;;64.10;2201.60;;;;;;5010485;28;20029;-70
2021/12/23 02:56:30;;;;;;;104.85;53.08;;;64.30;2201.60;;;;;;5010216;28;20022;-71
2021/12/23 02:58:56;;;;;;;141.88;70.43;;;64.00;2201.60;;;;;;5010145;28;20033;-70
2021/12/23 03:01:24;;;;;;;158.30;83.18;;;64.00;2201.60;;;;;;5010183;28;20135;-70
2021/12/23 03:03:50;;;;;;;135.40;71.47;;;64.00;2201.60;;;;;;5009841;28;20368;-70
2021/12/23 03:06:18;;;;;;;129.90;67.55;;;64.00;2201.60;;;;;;5012106;28;20044;-69
2021/12/23 03:08:56;;;;;;;118.28;57.55;;;64.20;2201.60;;;;;;5014310;28;20529;-69
2021/12/23 03:11:25;;;;;;;124.80;63.65;;;64.10;2201.60;;;;;;5014137;28;20022;-69
2021/12/23 03:13:51;;;;;;;125.47;63.78;;;64.20;2201.60;;;;;;5014148;28;20101;-68
2021/12/23 03:16:24;;;;;;;112.03;64.07;;;64.30;2201.60;;;;;;5013942;28;20044;-69
2021/12/23 03:18:50;;;;;;;92.35;45.20;;;64.30;2201.60;;;;;;5013672;28;20033;-69
2021/12/23 03:21:16;;;;;;;67.43;35.22;;;64.30;2201.60;;;;;;5013618;28;20140;-70
2021/12/23 03:23:42;;;;;;;78.57;38.05;;;64.40;2201.60;;;;;;5014136;28;20104;-69
2021/12/23 03:26:08;;;;;;;71.38;35.22;;;64.40;2201.60;;;;;;5013441;28;20045;-69
2021/12/23 03:28:34;;;;;;;53.65;29.20;;;64.40;2201.60;;;;;;5013966;28;20026;-70
2021/12/23 03:31:01;;;;;;;45.40;26.52;;;64.40;2201.60;;;;;;5013618;28;20141;-69
2021/12/23 03:33:27;;;;;;;72.53;34.67;;;64.40;2201.60;;;;;;5013458;28;20061;-70
2021/12/23 03:35:54;;;;;;;66.05;33.55;;;64.30;2201.60;;;;;;5013999;28;20049;-69
2021/12/23 03:38:20;;;;;;;115.18;57.65;;;64.50;2201.60;;;;;;5013339;28;20383;-68
2021/12/23 03:40:47;;;;;;;123.25;66.22;;;64.50;2201.60;;;;;;5013272;28;20053;-67
2021/12/23 03:43:14;;;;;;;124.13;62.42;;;64.50;2201.60;;;;;;5013524;28;20049;-69
2021/12/23 03:45:42;;;;;;;83.43;44.67;;;64.50;2201.60;;;;;;5013288;28;20494;-69
2021/12/23 03:48:09;;;;;;;67.03;37.30;;;64.60;2201.60;;;;;;5013375;28;20029;-68
2021/12/23 03:50:35;;;;;;;80.20;42.90;;;64.50;2201.60;;;;;;5013410;28;20084;-68
2021/12/23 03:53:02;;;;;;;88.30;45.58;;;64.50;2201.60;;;;;;5013507;28;20026;-69
2021/12/23 03:55:27;;;;;;;52.83;29.85;;;64.50;2201.60;;;;;;5013018;28;20061;-70
2021/12/23 03:57:53;;;;;;;43.90;27.48;;;64.50;2201.60;;;;;;5013272;28;20033;-70
2021/12/23 04:00:22;;;;;;;59.75;31.58;;;64.60;2201.60;;;;;;5012984;28;20022;-70
2021/12/23 04:02:49;;;;;;;96.78;45.17;;;64.60;2201.60;;;;;;5012867;28;20021;-69
2021/12/23 04:05:16;;;;;;;120.70;78.00;;;64.70;2201.60;;;;;;5013178;28;20046;-68
2021/12/23 04:07:43;;;;;;;65.43;38.58;;;64.90;2201.60;;;;;;5013050;28;20071;-69
2021/12/23 04:10:13;;;;;;;60.60;34.27;;;89.70;2176.00;;;;;;5012815;28;20083;-69
2021/12/23 04:12:41;;;;;;;68.63;37.87;;;64.90;2201.60;;;;;;5012694;28;20023;-70
2021/12/23 04:15:07;;;;;;;85.97;42.70;;;89.60;2201.60;;;;;;5012758;28;20117;-70
2021/12/23 04:17:33;;;;;;;82.23;42.90;;;64.80;2201.60;;;;;;5012787;28;20041;-68
2021/12/23 04:20:13;;;;;;;38.38;18.50;;;64.70;2201.60;;;;;;5013021;28;20486;-70
2021/12/23 04:22:39;;;;;;;32.42;16.85;;;64.80;2201.60;;;;;;5012623;28;20030;-70
2021/12/23 04:25:05;;;;;;;46.07;25.87;;;64.70;2201.60;;;;;;5012741;28;20117;-70
2021/12/23 04:27:30;;;;;;;50.40;28.40;;;64.80;2201.60;;;;;;5012604;28;20431;-70
2021/12/23 04:29:56;;;;;;;46.25;27.40;;;64.80;2201.60;;;;;;5012550;28;20087;-70
2021/12/23 04:32:22;;;;;;;62.17;35.23;;;64.80;2201.60;;;;;;5012463;28;20080;-70
2021/12/23 04:34:47;;;;;;;70.53;36.30;;;64.70;2201.60;;;;;;5012123;28;20046;-68
2021/12/23 04:37:13;;;;;;;46.45;27.58;;;64.80;2201.60;;;;;;5012550;28;20111;-69
2021/12/23 04:39:40;;;;;;;42.95;26.00;;;64.90;2201.60;;;;;;5012264;28;20033;-70
2021/12/23 04:42:06;;;;;;;48.22;25.98;;;64.80;2201.60;;;;;;5012709;28;20037;-70
2021/12/23 04:44:31;;;;;;;33.87;20.27;;;89.70;2176.00;;;;;;5012581;28;20368;-70
2021/12/23 04:46:57;;;;;;;40.00;22.75;;;89.60;2201.60;;;;;;5011965;28;20507;-69
2021/12/23 04:49:23;;;;;;;41.90;23.67;;;89.60;2201.60;;;;;;5012324;28;20022;-69
2021/12/23 04:51:49;;;;;;;44.80;24.67;;;64.90;2201.60;;;;;;5011965;28;20376;-70
2021/12/23 04:54:15;;;;;;;44.97;23.73;;;64.90;2201.60;;;;;;5012108;28;20029;-70
2021/12/23 04:56:41;;;;;;;32.90;17.42;;;89.60;2201.60;;;;;;5011877;28;20468;-68
2021/12/23 04:59:07;;;;;;;27.00;14.80;;;64.90;2201.60;;;;;;5012123;28;20030;-69
2021/12/23 05:01:33;;;;;;;26.65;15.30;;;89.60;2201.60;;;;;;5012023;28;20423;-70
2021/12/23 05:03:59;;;;;;;23.50;16.20;;;89.60;2201.60;;;;;;5014436;28;20044;-70
2021/12/23 05:06:25;;;;;;;31.43;18.90;;;64.90;2201.60;;;;;;5028488;28;20049;-69
2021/12/23 05:08:51;;;;;;;32.03;18.17;;;64.90;2201.60;;;;;;5031342;28;20032;-71
2021/12/23 05:11:17;;;;;;;45.72;26.13;;;89.60;2201.60;;;;;;5031426;28;20483;-70
2021/12/23 05:13:47;;;;;;;39.05;22.95;;;89.70;2176.00;;;;;;5031814;28;20032;-70
2021/12/23 05:16:14;;;;;;;32.23;18.40;;;89.70;2176.00;;;;;;5031711;28;20041;-70
2021/12/23 05:18:39;;;;;;;33.20;16.77;;;89.70;2176.00;;;;;;5031285;28;20079;-71
2021/12/23 05:21:05;;;;;;;49.63;27.67;;;89.60;2201.60;;;;;;5031545;28;20495;-71
2021/12/23 05:23:32;;;;;;;31.38;17.10;;;89.60;2201.60;;;;;;5031392;28;20464;-71
2021/12/23 05:25:57;;;;;;;30.52;17.45;;;89.60;2201.60;;;;;;5030916;28;20045;-70
2021/12/23 05:28:23;;;;;;;26.63;16.40;;;64.90;2201.60;;;;;;5030566;28;20361;-72
2021/12/23 05:30:49;;;;;;;25.40;14.45;;;89.60;2201.60;;;;;;5012632;28;20092;-72
2021/12/23 05:33:15;;;;;;;31.37;18.37;;;89.80;2176.00;;;;;;5013372;28;20079;-71
2021/12/23 05:35:41;;;;;;;44.10;25.03;;;90.00;2176.00;;;;;;5031298;28;20495;-71
2021/12/23 05:38:07;;;;;;;32.22;18.88;;;89.90;2176.00;;;;;;5031022;28;20075;-72
2021/12/23 05:40:34;;;;;;;36.67;21.20;;;89.90;2176.00;;;;;;5031082;28;20109;-71
2021/12/23 05:43:00;;;;;;;39.30;21.30;;;90.10;2176.00;;;;;;5030763;28;20109;-71
2021/12/23 05:45:26;;;;;;;49.73;22.57;;;89.80;2176.00;;;;;;5030502;28;20479;-72
2021/12/23 05:47:52;;;;;;;211.17;102.43;;;89.80;2176.00;;;;;;5030816;28;20030;-72
2021/12/23 05:50:19;;;;;;;96.43;50.43;;;89.80;2176.00;;;;;;5030755;28;20028;-71
2021/12/23 05:52:45;;;;;;;65.90;33.63;;;89.80;2176.00;;;;;;5030949;28;20072;-72
2021/12/23 05:55:14;;;;;;;46.50;25.70;;;89.70;2176.00;;;;;;5030712;28;20033;-72
2021/12/23 05:57:40;;;;;;;44.20;24.47;;;89.60;2201.60;;;;;;5021115;28;20056;-72
2021/12/23 06:00:20;;;;;;;58.30;27.57;;;89.70;2176.00;;;;;;5015608;28;20018;-71
2021/12/23 06:02:47;;;;;;;49.90;28.10;;;89.60;2201.60;;;;;;5010393;28;20026;-71
2021/12/23 06:05:14;;;;;;;61.17;35.07;;;89.70;2176.00;;;;;;5010882;28;20104;-72
2021/12/23 06:07:40;;;;;;;154.50;80.03;;;89.60;2201.60;;;;;;5010885;28;20072;-72
2021/12/23 06:10:07;;;;;;;215.87;123.50;;;64.90;2201.60;;;;;;5010647;28;20029;-71
2021/12/23 06:12:33;;;;;;;235.27;120.57;;;89.60;2201.60;;;;;;5010997;28;20029;-66
2021/12/23 06:14:58;;;;;;;153.03;75.80;;;64.90;2201.60;;;;;;5010612;28;20383;-67
2021/12/23 06:17:24;;;;;;;208.47;112.30;;;64.90;2201.60;;;;;;5010659;28;20034;-66
2021/12/23 06:19:50;;;;;;;168.87;91.40;;;64.90;2201.60;;;;;;5010498;28;20022;-66
2021/12/23 06:22:18;;;;;;;68.90;39.87;;;89.60;2201.60;;;;;;5010495;28;20026;-67
2021/12/23 06:24:47;;;;;;;81.13;42.30;;;89.60;2201.60;;;;;;5010417;28;20093;-63
2021/12/23 06:27:16;;;;;;;44.17;23.80;;;89.60;2201.60;;;;;;5010793;28;20037;-66
2021/12/23 06:29:42;;;;;;;56.67;25.95;;;89.80;2176.00;;;;;;5010859;28;20026;-66
2021/12/23 06:32:09;;;;;;;51.47;29.05;;;89.70;2176.00;;;;;;5010201;28;20384;-66
2021/12/23 06:34:35;;;;;;;34.13;22.70;;;89.70;2176.00;;;;;;5010447;28;20064;-67
2021/12/23 06:37:01;;;;;;;50.60;26.65;;;89.60;2201.60;;;;;;5010417;28;20025;-66
2021/12/23 06:39:26;;;;;;;195.97;94.77;;;64.90;2201.60;;;;;;5010235;28;20022;-67
2021/12/23 06:41:52;;;;;;;134.30;70.73;;;64.90;2201.60;;;;;;5010551;28;20125;-66
2021/12/23 06:44:18;;;;;;;101.80;54.70;;;64.90;2201.60;;;;;;5010165;28;20022;-65
2021/12/23 06:46:44;;;;;;;174.27;87.07;;;64.80;2201.60;;;;;;5010407;28;20113;-67
2021/12/23 06:49:09;;;;;;;141.63;70.90;;;64.70;2201.60;;;;;;5010297;28;20426;-67
2021/12/23 06:51:35;;;;;;;155.13;75.82;;;64.60;2201.60;;;;;;4993015;28;20022;-67
2021/12/23 06:54:02;;;;;;;213.40;100.72;;;64.50;2201.60;;;;;;5010457;28;20080;-66
2021/12/23 06:56:28;;;;;;;123.03;62.43;;;64.60;2201.60;;;;;;5009999;28;20040;-66
2021/12/23 06:58:54;;;;;;;143.77;74.13;;;64.40;2201.60;;;;;;5010210;28;20109;-66
2021/12/23 07:01:21;;;;;;;91.67;46.60;;;64.30;2201.60;;;;;;5010133;28;20030;-64
2021/12/23 07:06:36;;;;;;;298.75;176.98;;;64.30;2201.60;;;;;;5010245;28;20089;-65
2021/12/23 07:09:05;;;;;;;417.70;248.00;;;64.30;2201.60;;;;;;5010409;28;20710;-65
2021/12/23 07:11:32;;;;;;;411.60;249.15;;;64.30;2201.60;;;;;;5010150;28;20018;-66
2021/12/23 07:13:57;;;;;;;344.85;206.23;;;64.30;2201.60;;;;;;5009909;28;20034;-67
2021/12/23 07:16:23;;;;;;;283.92;165.88;;;64.20;2201.60;;;;;;5010274;28;20090;-66
2021/12/23 07:18:49;;;;;;;428.83;269.13;;;64.10;2201.60;;;;;;5010297;28;20018;-67
2021/12/23 07:21:15;;;;;;;432.45;267.20;;;64.20;2201.60;;;;;;5011269;28;20026;-67
2021/12/23 07:23:41;;;;;;;382.08;229.63;;;64.20;2201.60;;;;;;5010771;28;20072;-68
2021/12/23 07:26:06;;;;;;;358.77;206.52;;;64.10;2201.60;;;;;;5009641;28;20253;-67
2021/12/23 07:28:32;;;;;;;387.25;235.93;;;64.20;2201.60;;;;;;5010114;28;20038;-67
2021/12/23 07:30:58;;;;;;;356.58;220.23;;;64.10;2201.60;;;;;;5009886;28;20034;-67
2021/12/23 07:33:24;;;;;;;408.65;236.68;;;64.00;2201.60;;;;;;5009546;28;20484;-67
2021/12/23 07:35:50;;;;;;;484.93;306.20;;;39.20;2201.60;;;;;;5010279;28;20045;-67
2021/12/23 07:38:16;;;;;;;426.88;261.63;;;39.10;2201.60;;;;;;5009804;28;20030;-67
2021/12/23 07:40:42;;;;;;;366.52;221.10;;;39.00;2201.60;;;;;;5010163;28;20033;-67
2021/12/23 07:45:54;;;;;;;392.58;240.98;;;38.80;2201.60;;;;;;4930333;29;20052;-68
2021/12/23 07:48:20;;;;;;;426.30;259.30;;;38.80;2201.60;;;;;;4930002;29;20494;-66
2021/12/23 07:50:46;;;;;;;323.92;196.48;;;38.70;2201.60;;;;;;4930238;29;20087;-67
2021/12/23 07:53:11;;;;;;;381.83;237.30;;;38.60;2201.60;;;;;;4933306;29;20126;-67
2021/12/23 07:55:39;;;;;;;369.77;229.82;;;38.60;2201.60;;;;;;4933542;29;20046;-67
2021/12/23 07:58:04;;;;;;;399.23;225.18;;;38.70;2201.60;;;;;;4933616;29;20566;-64
2021/12/23 08:00:30;;;;;;;368.52;232.82;;;38.70;2201.60;;;;;;4933548;29;20032;-68
2021/12/23 08:02:57;;;;;;;202.77;120.38;;;38.50;2201.60;;;;;;4933528;29;20175;-67
2021/12/23 08:05:23;;;;;;;228.32;137.73;;;38.60;2201.60;;;;;;4933306;29;20084;-66
2021/12/23 08:07:49;;;;;;;244.80;136.43;;;38.50;2201.60;;;;;;4933282;29;20032;-68
2021/12/23 08:10:14;;;;;;;211.20;124.50;;;13.70;2201.60;;;;;;4933390;29;20087;-67
2021/12/23 08:12:40;;;;;;;195.32;113.78;;;13.60;2201.60;;;;;;4933189;29;20028;-68
2021/12/23 08:15:06;;;;;;;190.35;109.00;;;13.70;2201.60;;;;;;4933386;29;20545;-63
2021/12/23 08:17:32;;;;;;;139.27;77.47;;;13.70;2201.60;;;;;;4933389;29;20217;-68
2021/12/23 08:19:58;;;;;;;72.03;39.45;;;13.30;2201.60;;;;;;4932957;29;20063;-66
2021/12/23 08:22:24;;;;;;;55.58;29.83;;;0.00;2201.60;;;;;;4954060;28;20081;-67
2021/12/23 08:24:49;;;;;;;43.95;26.35;;;25.60;2201.60;;;;;;5012422;28;20160;-66
2021/12/23 08:27:15;;;;;;;52.83;30.17;;;51.90;2227.20;;;;;;5012884;28;20030;-67
2021/12/23 08:29:41;;;;;;;77.03;45.40;;;77.20;2227.20;;;;;;5012418;28;20453;-67
2021/12/23 08:32:07;;;;;;;113.70;64.68;;;77.00;2227.20;;;;;;5012195;28;20034;-67
2021/12/23 08:34:36;;;;;;;66.55;39.92;;;52.00;2227.20;;;;;;5012626;28;20080;-65
2021/12/23 08:37:04;;;;;;;513.78;265.42;;;51.90;2227.20;;;;;;5012631;28;20034;-67
2021/12/23 08:39:30;;;;;;;162.93;103.50;;;51.30;2227.20;;;;;;5012427;28;20506;-66
2021/12/23 08:41:56;;;;;;;256.70;158.77;;;26.40;2201.60;;;;;;5012699;28;20029;-65
2021/12/23 08:44:22;;;;;;;242.32;145.52;;;26.10;2201.60;;;;;;5012542;28;20022;-66
2021/12/23 08:46:47;;;;;;;254.45;149.32;;;26.00;2201.60;;;;;;5011994;28;20116;-66
2021/12/23 08:49:13;;;;;;;276.60;160.52;;;26.30;2201.60;;;;;;5012331;28;20053;-66
2021/12/23 08:51:41;;;;;;;280.05;162.02;;;51.30;2227.20;;;;;;5012073;28;20033;-66
2021/12/23 08:54:07;;;;;;;282.92;174.75;;;51.50;2227.20;;;;;;5012393;28;20021;-67
2021/12/23 08:56:33;;;;;;;280.70;168.23;;;51.70;2227.20;;;;;;5012497;28;20031;-68
2021/12/23 08:58:59;;;;;;;276.45;171.93;;;52.00;2227.20;;;;;;5012031;28;20076;-67
2021/12/23 09:01:25;;;;;;;242.68;149.50;;;52.10;2227.20;;;;;;5012087;28;20484;-67
2021/12/23 09:03:50;;;;;;;247.82;163.45;;;77.10;2227.20;;;;;;5010845;28;20033;-67
2021/12/23 09:06:16;;;;;;;256.52;170.55;;;128.30;2252.80;;;;;;4969929;22;20038;-57
2021/12/23 09:08:49;;;;;;;287.38;189.02;;;128.60;2073.60;;;;;;5198991;22;20137;-58
2021/12/23 09:11:15;;;;;;;288.77;184.88;;;103.30;2124.80;;;;;;5061570;22;20060;-58
2021/12/23 09:13:42;;;;;;;283.27;175.38;;;102.90;2124.80;;;;;;5031922;28;20029;-58
2021/12/23 09:16:07;;;;;;;246.13;152.90;;;103.10;2176.00;;;;;;5031443;28;20022;-58
2021/12/23 09:18:34;;;;;;;223.77;138.10;;;102.60;2201.60;;;;;;5031373;28;20525;-59
2021/12/23 09:20:59;;;;;;;212.93;143.63;;;77.60;2227.20;;;;;;5031561;28;20107;-58
2021/12/23 09:23:25;;;;;;;202.52;130.57;;;77.60;2227.20;;;;;;5031420;28;20073;-57
2021/12/23 09:34:59;;;;;;;160.55;102.53;;;77.30;2227.20;;;;;;5031776;28;20036;-57
2021/12/23 09:37:26;;;;;;;144.80;95.10;;;77.00;2227.20;;;;;;5031097;28;20090;-66
2021/12/23 09:39:54;;;;;;;138.05;89.95;;;77.00;2227.20;;;;;;5030936;28;20025;-58
2021/12/23 09:42:26;;;;;;;170.45;98.13;;;52.10;2227.20;;;;;;5031242;28;20036;-69
2021/12/23 09:44:57;;;;;;;214.95;135.48;;;51.90;2227.20;;;;;;5030858;28;20029;-59
2021/12/23 09:47:26;;;;;;;161.63;102.05;;;77.20;2227.20;;;;;;5031260;28;20048;-68
2021/12/23 09:49:54;;;;;;;161.05;93.63;;;77.10;2227.20;;;;;;5030803;28;20032;-65
2021/12/23 09:52:21;;;;;;;305.30;195.95;;;52.10;2227.20;;;;;;5031130;28;20040;-58
2021/12/23 09:54:48;;;;;;;260.50;160.15;;;77.30;2227.20;;;;;;5030523;28;20433;-57
2021/12/23 09:57:14;;;;;;;155.82;98.55;;;102.40;2227.20;;;;;;5030637;28;20029;-57
2021/12/23 09:59:42;;;;;;;157.10;98.50;;;77.50;2227.20;;;;;;5030880;28;20101;-69
2021/12/23 10:02:10;;;;;;;167.25;102.50;;;102.40;2227.20;;;;;;5030970;28;20482;-58
2021/12/23 10:04:36;;;;;;;163.60;102.28;;;102.70;2227.20;;;;;;5030340;28;20033;-57
2021/12/23 10:07:02;;;;;;;184.70;116.57;;;103.00;2227.20;;;;;;5030673;28;20033;-58
2021/12/23 10:30:09;;;;;;;277.73;175.82;;;103.30;2227.20;;;;;;4950077;29;20086;-58
2021/12/23 10:37:19;;;;;;;320.42;209.32;;;128.00;2252.80;;;;;;4950219;29;20035;-58
2021/12/23 10:39:49;;;;;;;359.98;231.98;;;128.10;2252.80;;;;;;4949902;29;20038;-62
2021/12/23 10:42:18;;;;;;;374.02;245.38;;;128.10;2252.80;;;;;;4949771;29;20031;-58
2021/12/23 10:44:59;;;;;;;395.83;251.68;;;103.30;2227.20;;;;;;4949794;29;20035;-57
2021/12/23 10:50:42;;;;;;;381.33;256.00;;;103.20;2227.20;;;;;;5020380;28;20038;-65
2021/12/23 10:53:27;;;;;;;401.02;260.80;;;128.10;2252.80;;;;;;5030102;28;20034;-57
2021/12/23 10:59:21;;;;;;;394.05;249.90;;;103.00;2227.20;;;;;;5030044;28;20068;-69
2021/12/23 11:02:11;;;;;;;291.35;186.52;;;103.10;2227.20;;;;;;5028408;28;20468;-69
2021/12/23 11:05:05;;;;;;;300.98;200.30;;;103.20;2227.20;;;;;;5030069;28;20108;-57
2021/12/23 11:07:54;;;;;;;310.13;201.65;;;102.90;2227.20;;;;;;5030111;28;20040;-58
2021/12/23 11:43:58;;;;;;;207.20;132.75;;;103.10;2227.20;;;;;;4899681;29;20084;-59
2021/12/23 11:46:28;;;;;;;172.75;105.15;;;103.10;2227.20;;;;;;4896510;29;20052;-58
2021/12/23 11:48:56;;;;;;;135.30;90.28;;;103.00;2227.20;;;;;;4896032;29;20096;-59
2021/12/23 11:54:11;;;;;;;174.10;110.75;;;102.80;2227.20;;;;;;4972436;28;20077;-57
2021/12/23 11:56:55;;;;;;;167.60;106.38;;;103.00;2227.20;;;;;;4972118;28;20074;-57
2021/12/23 11:59:21;;;;;;;161.82;101.20;;;103.10;2227.20;;;;;;4972040;28;20069;-64
2021/12/23 12:01:52;;;;;;;162.07;105.07;;;103.00;2227.20;;;;;;4972169;28;20023;-69
2021/12/23 12:04:30;;;;;;;187.10;117.75;;;103.00;2227.20;;;;;;4972192;28;20031;-58
2021/12/23 12:06:57;;;;;;;187.18;121.75;;;103.00;2227.20;;;;;;4971940;28;20042;-69
2021/12/23 12:09:32;;;;;;;163.30;107.25;;;103.10;2227.20;;;;;;4971971;28;20587;-68
2021/12/23 12:11:58;;;;;;;162.13;102.15;;;103.30;2227.20;;;;;;5008971;28;20034;-65
2021/12/23 12:14:55;;;;;;;165.88;104.70;;;103.30;2227.20;;;;;;5032826;28;20080;-57
2021/12/23 12:17:24;;;;;;;157.27;102.30;;;128.30;2252.80;;;;;;4991364;28;20100;-57
2021/12/23 12:19:58;;;;;;;162.43;105.45;;;128.20;2252.80;;;;;;4991293;28;20018;-57
2021/12/23 12:22:52;;;;;;;154.45;97.90;;;128.30;2252.80;;;;;;4991081;28;20505;-58
2021/12/23 12:25:25;;;;;;;160.90;104.78;;;128.20;2252.80;;;;;;4991052;28;20686;-58
2021/12/23 12:28:15;;;;;;;154.23;98.13;;;128.50;2252.80;;;;;;4990846;28;20079;-57
2021/12/23 12:30:49;;;;;;;142.43;96.18;;;128.60;2252.80;;;;;;4991012;28;20113;-57
2021/12/23 12:33:23;;;;;;;143.88;97.43;;;128.60;2252.80;;;;;;4990756;28;20040;-69
2021/12/23 12:35:58;;;;;;;130.57;86.22;;;128.70;2252.80;;;;;;4991050;28;20022;-57
2021/12/23 12:38:28;;;;;;;117.45;77.63;;;128.80;2252.80;;;;;;4990615;28;20038;-57
2021/12/23 12:41:25;;;;;;;119.15;77.78;;;128.90;2252.80;;;;;;4990679;28;20045;-58
2021/12/23 12:44:09;;;;;;;130.23;86.32;;;128.90;2252.80;;;;;;4990842;28;20489;-57
2021/12/23 12:46:41;;;;;;;174.05;117.63;;;128.90;2252.80;;;;;;4990467;28;20074;-57
2021/12/23 12:49:16;;;;;;;195.10;126.40;;;128.50;2252.80;;;;;;4990754;28;20023;-57
2021/12/23 12:51:45;;;;;;;239.95;160.80;;;128.70;2252.80;;;;;;4990422;28;20026;-57
2021/12/23 12:54:18;;;;;;;201.70;126.40;;;128.70;2252.80;;;;;;5005678;28;20041;-64
2021/12/23 12:56:56;;;;;;;328.90;217.63;;;128.60;2252.80;;;;;;5011914;28;20066;-58
2021/12/23 12:59:29;;;;;;;219.00;143.25;;;128.30;2252.80;;;;;;5012018;28;20022;-58
2021/12/23 13:01:57;;;;;;;225.68;143.27;;;128.30;2252.80;;;;;;5012108;28;20022;-57
2021/12/23 13:04:29;;;;;;;218.73;137.88;;;128.40;2252.80;;;;;;5012045;28;20380;-57
2021/12/23 13:06:58;;;;;;;212.40;138.73;;;128.50;2252.80;;;;;;5011924;28;20423;-69
2021/12/23 13:09:29;;;;;;;224.30;143.13;;;128.70;2252.80;;;;;;5012063;28;20109;-58
2021/12/23 13:11:58;;;;;;;219.00;142.52;;;128.70;2252.80;;;;;;5011716;28;20514;-57
2021/12/23 13:14:51;;;;;;;218.93;141.95;;;128.60;2252.80;;;;;;5011885;28;20018;-69
2021/12/23 13:17:24;;;;;;;221.93;142.05;;;128.40;2252.80;;;;;;5011752;28;20164;-56
2021/12/23 13:19:50;;;;;;;;;;;128.60;2252.80;;;;;;5012537;28;20049;-57
2021/12/23 13:22:18;;;;;;;220.82;141.73;;;128.70;2252.80;;;;;;5011537;28;19906;-57
2021/12/23 13:24:44;;;;;;;216.85;144.48;;;128.70;2252.80;;;;;;5011585;28;20026;-57
2021/12/23 13:27:10;;;;;;;230.48;145.25;;;128.80;2252.80;;;;;;5012216;28;20176;-57
2021/12/23 13:29:40;;;;;;;236.88;147.50;;;128.90;2252.80;;;;;;5031133;28;20534;-57
2021/12/23 13:32:06;;;;;;;243.20;154.98;;;128.90;2252.80;;;;;;5031419;28;20052;-69